Time;durP1;ratioP1;P1;durP2;ratioP2;P2;SDS_P1;SDS_P2;PMS_P1;PMS_P2;Temp;Humidity;BMP_temperature;BMP_pressure;BME280_temperature;BME280_humidity;BME280_pressure;Samples;Min_cycle;Max_cycle;Signal;HPM_P1;HPM_P2
2021/03/29 00:00:22;;;;;;;8.00;6.50;;;11.60;99.90;;;;;;4987018;28;20627;-61
2021/03/29 00:02:56;;;;;;;8.57;6.40;;;11.50;99.90;;;;;;5001666;28;20623;-61
2021/03/29 00:05:30;;;;;;;11.37;6.63;;;11.50;99.90;;;;;;5015183;28;20621;-61
2021/03/29 00:08:22;;;;;;;9.83;6.83;;;11.50;99.90;;;;;;4998952;28;20723;-62
2021/03/29 00:10:56;;;;;;;8.33;6.07;;;11.60;99.90;;;;;;5000748;28;20664;-61
2021/03/29 00:13:25;;;;;;;7.80;6.20;;;11.60;99.90;;;;;;4997776;28;20702;-60
2021/03/29 00:15:53;;;;;;;7.63;6.00;;;11.60;99.90;;;;;;4996756;28;20677;-61
2021/03/29 00:18:29;;;;;;;8.10;5.70;;;11.60;99.90;;;;;;5003051;28;22254;-62
2021/03/29 00:21:06;;;;;;;11.10;6.60;;;11.60;99.90;;;;;;4992339;28;21043;-61
2021/03/29 00:23:43;;;;;;;7.80;5.73;;;11.60;99.90;;;;;;4998810;28;20636;-61
2021/03/29 00:26:17;;;;;;;9.00;5.50;;;11.60;99.90;;;;;;5005145;28;20682;-61
2021/03/29 00:28:48;;;;;;;10.77;6.23;;;11.70;99.90;;;;;;4996546;28;21270;-62
2021/03/29 00:31:16;;;;;;;7.13;5.57;;;11.70;99.90;;;;;;4987020;28;20691;-61
2021/03/29 00:33:45;;;;;;;7.17;5.80;;;11.70;99.90;;;;;;5000461;28;20791;-61
2021/03/29 00:36:24;;;;;;;9.90;5.10;;;11.60;99.90;;;;;;4999048;28;20680;-61
2021/03/29 00:38:54;;;;;;;7.30;5.10;;;11.60;99.90;;;;;;4998058;28;20658;-62
2021/03/29 00:41:28;;;;;;;6.87;5.37;;;11.60;99.90;;;;;;5000508;28;21443;-61
2021/03/29 00:44:01;;;;;;;8.90;5.07;;;11.60;99.90;;;;;;4991307;28;20769;-60
2021/03/29 00:46:30;;;;;;;10.40;5.20;;;11.60;99.90;;;;;;5003729;28;21204;-60
2021/03/29 00:48:58;;;;;;;5.47;4.57;;;11.60;99.90;;;;;;5002062;28;21370;-62
2021/03/29 00:51:35;;;;;;;6.40;4.53;;;11.60;99.90;;;;;;4999046;28;20708;-60
2021/03/29 00:54:08;;;;;;;4.80;4.30;;;11.60;99.90;;;;;;4999486;28;20614;-60
2021/03/29 00:56:38;;;;;;;7.23;4.43;;;11.60;99.90;;;;;;4996799;28;21319;-60
2021/03/29 00:59:13;;;;;;;5.63;4.10;;;11.60;99.90;;;;;;4997251;28;20653;-60
2021/03/29 01:02:00;;;;;;;11.10;4.57;;;11.60;99.90;;;;;;4998566;28;20706;-60
2021/03/29 01:04:34;;;;;;;8.73;4.53;;;11.60;99.90;;;;;;5003225;28;20609;-62
2021/03/29 01:07:11;;;;;;;7.30;5.00;;;11.70;99.90;;;;;;4999152;28;20633;-59
2021/03/29 01:09:42;;;;;;;5.50;4.60;;;11.70;99.90;;;;;;5002994;28;20703;-60
2021/03/29 01:12:09;;;;;;;7.93;5.43;;;11.70;99.90;;;;;;5003209;28;21925;-60
2021/03/29 01:15:07;;;;;;;6.63;4.70;;;11.60;99.90;;;;;;4999891;28;20623;-59
2021/03/29 01:17:38;;;;;;;9.20;4.77;;;11.60;99.90;;;;;;4995233;28;21082;-60
2021/03/29 01:20:19;;;;;;;7.03;3.97;;;11.70;99.90;;;;;;4996335;28;20745;-62
2021/03/29 01:22:53;;;;;;;6.17;4.83;;;11.70;99.90;;;;;;5000998;28;20658;-62
2021/03/29 01:25:44;;;;;;;7.90;4.70;;;11.70;99.90;;;;;;4999822;28;20621;-62
2021/03/29 01:28:22;;;;;;;7.07;4.13;;;11.70;99.90;;;;;;5004416;28;20658;-62
2021/03/29 01:30:57;;;;;;;7.47;5.10;;;11.70;99.90;;;;;;5002737;28;20831;-62
2021/03/29 01:33:24;;;;;;;6.70;4.57;;;11.70;99.90;;;;;;5003657;28;20777;-61
2021/03/29 01:35:57;;;;;;;11.20;5.50;;;11.70;99.90;;;;;;5007423;28;20678;-61
2021/03/29 01:38:25;;;;;;;6.53;4.30;;;11.70;99.90;;;;;;5005629;28;20802;-61
2021/03/29 01:41:00;;;;;;;5.50;4.73;;;11.70;99.90;;;;;;5006366;28;21007;-59
2021/03/29 01:43:49;;;;;;;7.70;4.63;;;11.70;99.90;;;;;;4983144;28;20635;-60
2021/03/29 01:46:24;;;;;;;8.83;4.93;;;11.80;99.90;;;;;;4985655;28;21167;-61
2021/03/29 01:48:55;;;;;;;8.00;5.73;;;11.70;99.90;;;;;;4981565;28;20650;-62
2021/03/29 01:51:21;;;;;;;7.17;5.33;;;11.70;99.90;;;;;;4986377;28;20761;-63
2021/03/29 01:53:59;;;;;;;6.53;5.60;;;11.70;99.90;;;;;;5003150;28;20626;-62
2021/03/29 01:56:27;;;;;;;6.47;4.90;;;11.80;99.90;;;;;;5003884;28;21468;-62
2021/03/29 01:58:52;;;;;;;7.73;4.87;;;11.80;99.90;;;;;;5006282;28;20689;-60
2021/03/29 02:01:23;;;;;;;6.83;5.70;;;11.70;99.90;;;;;;4981043;28;21187;-61
2021/03/29 02:03:49;;;;;;;5.80;4.90;;;11.80;99.90;;;;;;5003387;28;20465;-60
2021/03/29 02:06:25;;;;;;;7.00;4.97;;;11.80;99.90;;;;;;5003085;28;21173;-62
2021/03/29 02:08:57;;;;;;;8.37;5.70;;;11.70;99.90;;;;;;5004181;28;20661;-61
2021/03/29 02:11:31;;;;;;;6.80;5.20;;;11.80;99.90;;;;;;5005074;28;22364;-62
2021/03/29 02:14:02;;;;;;;6.93;5.83;;;11.70;99.90;;;;;;5003099;28;20795;-62
2021/03/29 02:16:29;;;;;;;7.23;4.83;;;11.80;99.90;;;;;;5004749;28;20746;-61
2021/03/29 02:19:07;;;;;;;10.40;5.70;;;11.80;99.90;;;;;;5005324;28;21272;-62
2021/03/29 02:21:42;;;;;;;12.60;5.57;;;11.80;99.90;;;;;;5014972;28;20776;-63
2021/03/29 02:24:13;;;;;;;7.20;5.40;;;11.70;99.90;;;;;;5004631;28;20634;-61
2021/03/29 02:27:06;;;;;;;6.37;5.27;;;11.70;99.90;;;;;;5006100;28;20617;-61
2021/03/29 02:29:35;;;;;;;10.70;5.90;;;11.70;99.90;;;;;;5005953;28;20644;-60
2021/03/29 02:32:06;;;;;;;11.30;5.93;;;11.60;99.90;;;;;;5008767;28;20641;-61
2021/03/29 02:34:34;;;;;;;9.50;5.37;;;11.70;99.90;;;;;;4993168;28;20625;-60
2021/03/29 02:37:34;;;;;;;6.40;5.30;;;11.70;99.90;;;;;;5004764;28;20758;-60
2021/03/29 02:40:06;;;;;;;11.10;5.97;;;11.70;99.90;;;;;;5004057;28;20842;-61
2021/03/29 02:42:33;;;;;;;6.87;5.70;;;11.70;99.90;;;;;;5001597;28;20653;-60
2021/03/29 02:45:07;;;;;;;9.03;5.37;;;11.70;99.90;;;;;;5002488;28;20606;-60
2021/03/29 02:47:45;;;;;;;5.77;4.67;;;11.60;99.90;;;;;;4991408;28;20623;-59
2021/03/29 02:50:16;;;;;;;8.47;5.50;;;11.70;99.90;;;;;;5003696;28;23582;-59
2021/03/29 02:52:49;;;;;;;9.30;5.23;;;11.70;99.90;;;;;;5006905;28;21197;-62
2021/03/29 02:55:23;;;;;;;6.83;6.10;;;11.70;99.90;;;;;;4993244;28;20633;-63
2021/03/29 02:58:01;;;;;;;10.73;5.80;;;11.80;99.90;;;;;;5005031;28;23270;-63
2021/03/29 03:00:29;;;;;;;9.43;5.03;;;11.80;99.90;;;;;;5002874;28;23082;-65
2021/03/29 03:03:02;;;;;;;7.87;5.20;;;11.80;99.90;;;;;;5003536;28;20637;-61
2021/03/29 03:05:30;;;;;;;6.67;5.60;;;11.80;99.90;;;;;;5005896;28;20625;-61
2021/03/29 03:08:05;;;;;;;7.03;5.33;;;11.70;99.90;;;;;;5009158;28;20621;-60
2021/03/29 03:10:49;;;;;;;7.20;5.83;;;11.70;99.90;;;;;;5002092;28;20643;-61
2021/03/29 03:13:22;;;;;;;10.33;6.10;;;11.80;99.90;;;;;;5004037;28;21213;-62
2021/03/29 03:15:53;;;;;;;7.33;6.00;;;11.80;99.90;;;;;;5003156;28;20599;-60
2021/03/29 03:18:40;;;;;;;8.70;5.87;;;11.70;99.90;;;;;;4992306;28;20891;-61
2021/03/29 03:21:16;;;;;;;7.27;5.53;;;11.70;99.90;;;;;;5001217;28;20637;-61
2021/03/29 03:24:00;;;;;;;6.90;6.00;;;11.80;99.90;;;;;;5000139;28;20670;-64
2021/03/29 03:26:46;;;;;;;8.40;6.30;;;11.70;99.90;;;;;;5002061;28;21295;-64
2021/03/29 03:29:20;;;;;;;6.80;6.20;;;11.80;99.90;;;;;;5004174;28;21161;-63
2021/03/29 03:32:10;;;;;;;8.40;6.33;;;11.80;99.90;;;;;;5002437;28;21328;-64
2021/03/29 03:34:44;;;;;;;11.40;6.57;;;11.90;99.90;;;;;;5004337;28;20762;-65
2021/03/29 03:37:35;;;;;;;12.43;6.33;;;11.90;99.90;;;;;;5002734;28;20648;-64
2021/03/29 03:40:04;;;;;;;7.40;6.00;;;11.80;99.90;;;;;;5004808;28;20661;-63
2021/03/29 03:42:30;;;;;;;7.80;6.47;;;11.80;99.90;;;;;;4999802;28;20643;-64
2021/03/29 03:44:59;;;;;;;11.30;6.87;;;11.80;99.90;;;;;;5002695;28;20619;-60
2021/03/29 03:47:47;;;;;;;10.13;6.50;;;11.80;99.90;;;;;;5004006;28;20636;-59
2021/03/29 03:50:16;;;;;;;8.90;6.63;;;11.80;99.90;;;;;;5004976;28;22564;-60
2021/03/29 03:52:48;;;;;;;6.47;5.87;;;11.80;99.90;;;;;;5004280;28;20748;-60
2021/03/29 03:55:18;;;;;;;7.97;6.20;;;11.80;99.90;;;;;;5006489;28;20907;-60
2021/03/29 03:57:54;;;;;;;7.20;5.70;;;11.80;99.90;;;;;;5000412;28;21336;-60
2021/03/29 04:00:25;;;;;;;6.60;5.50;;;11.80;99.90;;;;;;5011911;28;20990;-62
2021/03/29 04:02:50;;;;;;;8.97;6.37;;;11.80;99.90;;;;;;5003202;28;20946;-60
2021/03/29 04:05:29;;;;;;;6.90;6.20;;;11.80;99.90;;;;;;5012275;28;20618;-60
2021/03/29 04:07:57;;;;;;;10.50;6.00;;;11.80;99.90;;;;;;5011217;28;20241;-60
2021/03/29 04:10:39;;;;;;;6.47;5.57;;;11.90;99.90;;;;;;5002618;28;20638;-60
2021/03/29 04:13:24;;;;;;;7.60;6.37;;;11.80;99.90;;;;;;5003867;28;20996;-62
2021/03/29 04:15:58;;;;;;;8.37;5.90;;;11.80;99.90;;;;;;5001894;28;24529;-59
2021/03/29 04:18:24;;;;;;;13.17;5.77;;;11.90;99.90;;;;;;4998921;28;20670;-61
2021/03/29 04:21:00;;;;;;;7.13;6.40;;;11.90;99.90;;;;;;5014822;28;20764;-62
2021/03/29 04:23:30;;;;;;;8.17;6.27;;;11.90;99.90;;;;;;5001227;28;20646;-60
2021/03/29 04:26:01;;;;;;;10.10;5.90;;;11.80;99.90;;;;;;5000400;28;20625;-59
2021/03/29 04:28:26;;;;;;;6.80;6.20;;;11.80;99.90;;;;;;5000840;28;20648;-61
2021/03/29 04:31:00;;;;;;;7.83;6.37;;;11.80;99.90;;;;;;5000629;28;20621;-62
2021/03/29 04:33:26;;;;;;;7.73;5.37;;;11.80;99.90;;;;;;5002640;28;20224;-60
2021/03/29 04:35:52;;;;;;;7.97;5.20;;;11.80;99.90;;;;;;5000218;28;20623;-61
2021/03/29 04:38:25;;;;;;;6.57;5.00;;;11.80;99.90;;;;;;5002392;28;20252;-59
2021/03/29 04:41:14;;;;;;;6.40;5.50;;;11.80;99.90;;;;;;5001501;28;20867;-62
2021/03/29 04:43:44;;;;;;;8.37;5.77;;;11.80;99.90;;;;;;5001717;28;20663;-60
2021/03/29 04:46:09;;;;;;;8.23;5.67;;;11.70;99.90;;;;;;5001882;28;20611;-59
2021/03/29 04:48:38;;;;;;;8.93;5.27;;;11.70;99.90;;;;;;5001808;28;21338;-60
2021/03/29 04:51:06;;;;;;;6.77;6.00;;;11.70;99.90;;;;;;4996512;28;20336;-62
2021/03/29 04:53:37;;;;;;;5.67;5.17;;;11.70;99.90;;;;;;5000068;28;20710;-60
2021/03/29 04:56:33;;;;;;;7.60;5.40;;;11.70;99.90;;;;;;5008610;28;21398;-61
2021/03/29 04:59:14;;;;;;;7.00;5.20;;;11.60;99.90;;;;;;5003898;28;20710;-60
2021/03/29 05:01:42;;;;;;;7.80;5.23;;;11.60;99.90;;;;;;5004091;28;20865;-62
2021/03/29 05:04:28;;;;;;;6.43;5.60;;;11.60;99.90;;;;;;5007605;28;22049;-62
2021/03/29 05:06:56;;;;;;;5.80;4.90;;;11.70;99.90;;;;;;5005553;28;20911;-62
2021/03/29 05:09:29;;;;;;;10.07;5.23;;;11.70;99.90;;;;;;5002949;28;20730;-61
2021/03/29 05:12:07;;;;;;;5.60;5.00;;;11.70;99.90;;;;;;5004682;28;21080;-62
2021/03/29 05:14:33;;;;;;;6.47;4.53;;;11.70;99.90;;;;;;5002863;28;20614;-66
2021/03/29 05:16:59;;;;;;;9.77;5.50;;;11.70;99.90;;;;;;4999528;28;20646;-66
2021/03/29 05:19:24;;;;;;;6.50;4.60;;;11.70;99.90;;;;;;4994915;28;20299;-65
2021/03/29 05:21:50;;;;;;;9.87;5.63;;;11.70;99.90;;;;;;5005659;28;20362;-68
2021/03/29 05:24:15;;;;;;;12.13;4.20;;;11.80;99.90;;;;;;4997257;28;20293;-66
2021/03/29 05:26:41;;;;;;;7.90;4.77;;;11.80;99.90;;;;;;4987268;28;20204;-67
2021/03/29 05:29:09;;;;;;;7.10;5.23;;;11.70;99.90;;;;;;5003740;28;20297;-67
2021/03/29 05:31:40;;;;;;;6.07;4.60;;;11.70;99.90;;;;;;4998905;28;20784;-68
2021/03/29 05:34:07;;;;;;;8.20;5.60;;;11.70;99.90;;;;;;4997643;28;21046;-66
2021/03/29 05:36:33;;;;;;;5.77;4.40;;;11.70;99.90;;;;;;4997454;28;20642;-67
2021/03/29 05:38:58;;;;;;;6.67;4.53;;;11.70;99.90;;;;;;4996466;28;20762;-66
2021/03/29 05:41:24;;;;;;;8.83;4.70;;;11.70;99.90;;;;;;5002470;28;20326;-66
2021/03/29 05:43:50;;;;;;;6.70;4.93;;;11.60;99.90;;;;;;5001562;28;20282;-64
2021/03/29 05:46:18;;;;;;;7.17;4.30;;;11.70;99.90;;;;;;5002258;28;20248;-65
2021/03/29 05:48:43;;;;;;;8.93;4.40;;;11.70;99.90;;;;;;4986099;28;20281;-67
2021/03/29 05:51:11;;;;;;;6.80;4.80;;;11.60;99.90;;;;;;4998827;28;21389;-67
2021/03/29 05:53:37;;;;;;;7.00;4.63;;;11.70;99.90;;;;;;4983335;28;20382;-66
2021/03/29 05:56:04;;;;;;;5.97;4.30;;;11.80;99.90;;;;;;4978600;28;21418;-68
2021/03/29 06:00:56;;;;;;;10.27;4.90;;;11.80;99.90;;;;;;4988305;28;20877;-65
2021/03/29 06:03:36;;;;;;;6.60;4.77;;;11.80;99.90;;;;;;4977914;28;20532;-65
2021/03/29 06:06:01;;;;;;;6.97;4.40;;;11.80;99.90;;;;;;4955014;28;22427;-65
2021/03/29 06:08:28;;;;;;;8.10;4.10;;;11.80;99.90;;;;;;4990069;28;21012;-68
2021/03/29 06:10:56;;;;;;;6.73;4.33;;;11.80;99.90;;;;;;4975774;28;20230;-67
2021/03/29 06:13:30;;;;;;;6.67;4.20;;;11.90;99.90;;;;;;4989524;28;21293;-63
2021/03/29 06:16:10;;;;;;;6.33;4.17;;;11.90;99.90;;;;;;4987905;28;20621;-62
2021/03/29 06:18:38;;;;;;;8.00;4.30;;;11.80;99.90;;;;;;4985688;28;20735;-66
2021/03/29 06:21:10;;;;;;;9.23;4.00;;;11.90;99.90;;;;;;4989462;28;20649;-63
2021/03/29 06:23:38;;;;;;;5.10;4.10;;;12.00;99.90;;;;;;4989662;28;20611;-66
2021/03/29 06:26:24;;;;;;;6.47;4.20;;;12.00;99.90;;;;;;4978201;28;20660;-66
2021/03/29 06:28:50;;;;;;;7.60;4.20;;;12.00;99.90;;;;;;4981975;28;20649;-65
2021/03/29 06:31:27;;;;;;;5.77;3.80;;;11.90;99.90;;;;;;4993229;28;20653;-65
2021/03/29 06:33:54;;;;;;;7.03;4.10;;;12.00;99.90;;;;;;4984452;28;20724;-63
2021/03/29 06:36:25;;;;;;;5.30;3.90;;;12.00;99.90;;;;;;4985574;28;20629;-64
2021/03/29 06:38:51;;;;;;;6.27;3.90;;;12.10;99.90;;;;;;4986218;28;21061;-65
2021/03/29 06:41:28;;;;;;;9.43;4.60;;;12.10;99.90;;;;;;4989404;28;20629;-66
2021/03/29 06:43:54;;;;;;;6.67;3.60;;;12.10;99.90;;;;;;4982060;28;20675;-63
2021/03/29 06:46:25;;;;;;;13.50;4.93;;;12.10;99.90;;;;;;4982855;28;21360;-64
2021/03/29 06:48:52;;;;;;;8.27;4.30;;;12.10;99.90;;;;;;4981112;28;20694;-65
2021/03/29 06:51:23;;;;;;;8.00;4.00;;;12.10;99.90;;;;;;4984930;28;23461;-63
2021/03/29 06:54:08;;;;;;;7.73;3.93;;;12.10;99.90;;;;;;4991881;28;21358;-63
2021/03/29 06:56:42;;;;;;;7.30;4.10;;;12.20;99.90;;;;;;4976897;28;20695;-64
2021/03/29 06:59:10;;;;;;;8.40;3.60;;;12.30;99.90;;;;;;4987182;28;20668;-64
2021/03/29 07:01:44;;;;;;;5.67;4.07;;;12.30;99.90;;;;;;4985463;28;20638;-66
2021/03/29 07:04:10;;;;;;;9.37;4.60;;;12.40;99.90;;;;;;4976645;28;21049;-64
2021/03/29 07:06:39;;;;;;;5.50;4.93;;;12.40;99.90;;;;;;4983982;28;20627;-64
2021/03/29 07:09:06;;;;;;;8.37;5.00;;;12.40;99.90;;;;;;4972375;28;20243;-64
2021/03/29 07:11:33;;;;;;;6.17;4.30;;;12.40;99.90;;;;;;4988055;28;22212;-66
2021/03/29 07:13:59;;;;;;;8.80;4.37;;;12.40;99.90;;;;;;4985685;28;20660;-66
2021/03/29 07:16:27;;;;;;;8.67;4.50;;;12.40;99.90;;;;;;4986394;28;20634;-65
2021/03/29 07:19:02;;;;;;;6.43;4.10;;;12.50;99.90;;;;;;4983817;28;20684;-66
2021/03/29 07:21:28;;;;;;;6.67;4.37;;;12.60;99.90;;;;;;4982000;28;20632;-65
2021/03/29 07:24:01;;;;;;;7.40;4.50;;;12.60;99.90;;;;;;4985077;28;20618;-66
2021/03/29 07:27:02;;;;;;;9.07;4.40;;;12.70;99.90;;;;;;4983745;28;20637;-65
2021/03/29 07:29:31;;;;;;;7.90;3.97;;;12.70;99.90;;;;;;4989970;28;20657;-66
2021/03/29 07:32:02;;;;;;;5.40;4.13;;;12.70;99.90;;;;;;4993985;28;21037;-65
2021/03/29 07:34:47;;;;;;;5.37;4.47;;;12.80;99.90;;;;;;4993202;28;20676;-64
2021/03/29 07:37:41;;;;;;;6.83;3.90;;;12.90;99.90;;;;;;4995043;28;20776;-65
2021/03/29 07:40:18;;;;;;;7.30;4.10;;;12.60;99.90;;;;;;4982723;28;21919;-65
2021/03/29 07:42:49;;;;;;;8.17;4.40;;;12.90;99.90;;;;;;4984173;28;20665;-64
2021/03/29 07:45:19;;;;;;;6.33;4.00;;;12.90;99.90;;;;;;4990470;28;21238;-64
2021/03/29 07:47:52;;;;;;;6.90;3.70;;;13.00;99.90;;;;;;4996468;28;21334;-67
2021/03/29 07:50:27;;;;;;;6.43;3.67;;;13.00;99.90;;;;;;4985963;28;22182;-65
2021/03/29 07:52:54;;;;;;;8.53;4.67;;;13.00;99.90;;;;;;4982657;28;21283;-61
2021/03/29 07:55:31;;;;;;;6.83;4.13;;;13.00;99.90;;;;;;4969888;28;21071;-61
2021/03/29 07:57:58;;;;;;;5.63;3.67;;;13.10;99.90;;;;;;4981765;28;20629;-60
2021/03/29 08:00:24;;;;;;;9.00;4.63;;;13.10;99.90;;;;;;4983323;28;20615;-61
2021/03/29 08:02:51;;;;;;;5.60;4.23;;;13.10;99.90;;;;;;4977653;28;21155;-60
2021/03/29 08:05:42;;;;;;;8.17;4.50;;;13.20;99.90;;;;;;4967149;28;20232;-60
2021/03/29 08:08:24;;;;;;;9.77;4.33;;;13.20;99.90;;;;;;4982707;28;21023;-62
2021/03/29 08:11:00;;;;;;;9.73;4.27;;;13.30;99.90;;;;;;4984621;28;20698;-61
2021/03/29 08:13:44;;;;;;;6.50;4.00;;;13.40;99.90;;;;;;4954722;28;20652;-60
2021/03/29 08:16:10;;;;;;;7.97;4.57;;;13.30;99.90;;;;;;4958342;28;20631;-65
2021/03/29 08:19:14;;;;;;;7.60;4.27;;;13.40;99.90;;;;;;4956254;28;21403;-67
2021/03/29 08:22:02;;;;;;;6.10;3.80;;;13.30;99.90;;;;;;4976694;28;21322;-65
2021/03/29 08:24:33;;;;;;;9.10;4.20;;;13.10;99.90;;;;;;4984141;28;20614;-65
2021/03/29 08:27:04;;;;;;;5.67;4.07;;;13.30;99.90;;;;;;5007179;28;20661;-65
2021/03/29 08:29:33;;;;;;;4.97;4.47;;;13.40;99.90;;;;;;4995637;28;21162;-63
2021/03/29 08:32:24;;;;;;;4.60;4.10;;;13.40;99.90;;;;;;4982368;28;20739;-66
2021/03/29 08:34:54;;;;;;;5.83;4.43;;;13.40;99.90;;;;;;4997030;28;20618;-66
2021/03/29 08:37:42;;;;;;;6.87;5.53;;;13.50;99.90;;;;;;4983100;28;20669;-67
2021/03/29 08:40:20;;;;;;;5.57;4.07;;;13.50;99.90;;;;;;4977229;28;20614;-66
2021/03/29 08:42:52;;;;;;;6.60;3.93;;;13.50;99.90;;;;;;4975162;28;20898;-67
2021/03/29 08:45:20;;;;;;;5.10;4.20;;;13.50;99.90;;;;;;4969642;28;20695;-68
2021/03/29 08:47:48;;;;;;;6.97;4.20;;;13.50;99.90;;;;;;4957411;28;20620;-67
2021/03/29 08:50:19;;;;;;;5.80;4.60;;;13.50;99.90;;;;;;4974517;28;20681;-67
2021/03/29 08:52:50;;;;;;;6.43;4.50;;;13.60;99.90;;;;;;4988410;28;20664;-67
2021/03/29 08:55:40;;;;;;;7.33;4.83;;;13.50;99.90;;;;;;4980761;28;21080;-65
2021/03/29 08:58:07;;;;;;;9.23;5.53;;;13.60;99.90;;;;;;4987517;28;20674;-67
2021/03/29 09:00:41;;;;;;;6.50;4.97;;;13.40;99.90;;;;;;4994862;28;21304;-62
2021/03/29 09:03:22;;;;;;;5.20;4.07;;;13.70;99.90;;;;;;4977933;28;20657;-61
2021/03/29 09:05:48;;;;;;;5.13;4.50;;;13.80;99.90;;;;;;4959377;28;20609;-62
2021/03/29 09:08:14;;;;;;;6.30;4.80;;;13.90;99.90;;;;;;4998434;28;20642;-62
2021/03/29 09:10:42;;;;;;;7.87;4.47;;;14.00;99.90;;;;;;4990273;28;20666;-62
2021/03/29 09:13:13;;;;;;;7.30;4.70;;;14.00;99.90;;;;;;4986177;28;20638;-62
2021/03/29 09:15:43;;;;;;;6.13;4.50;;;14.00;99.90;;;;;;4988555;28;21655;-61
2021/03/29 09:18:15;;;;;;;8.83;5.20;;;13.90;99.90;;;;;;4980449;28;20685;-62
2021/03/29 09:20:46;;;;;;;5.10;4.40;;;14.00;99.90;;;;;;4988773;28;20630;-61
2021/03/29 09:23:13;;;;;;;6.50;4.83;;;14.10;99.90;;;;;;4988057;28;20748;-61
2021/03/29 09:25:41;;;;;;;5.40;4.50;;;14.20;99.90;;;;;;4979435;28;21061;-66
2021/03/29 09:31:26;;;;;;;9.10;4.70;;;14.20;99.90;;;;;;4953433;28;20644;-67
2021/03/29 09:33:53;;;;;;;6.37;4.70;;;14.20;99.90;;;;;;4980101;28;21025;-68
2021/03/29 09:36:22;;;;;;;6.07;4.53;;;14.30;99.90;;;;;;4989924;28;20618;-67
2021/03/29 09:38:56;;;;;;;9.97;4.70;;;14.40;99.90;;;;;;5004316;28;20780;-64
2021/03/29 09:41:32;;;;;;;5.87;4.40;;;14.30;99.90;;;;;;4991024;28;20642;-67
2021/03/29 09:43:59;;;;;;;6.07;3.93;;;14.40;99.90;;;;;;4990690;28;20587;-69
2021/03/29 09:46:29;;;;;;;8.40;4.90;;;14.50;99.90;;;;;;4992264;28;20641;-68
2021/03/29 09:49:24;;;;;;;5.33;4.93;;;14.60;99.90;;;;;;5008743;28;20655;-67
2021/03/29 09:52:01;;;;;;;5.83;4.63;;;14.60;99.90;;;;;;4985010;28;20735;-65
2021/03/29 09:54:28;;;;;;;5.73;5.07;;;14.70;99.90;;;;;;4995616;28;20720;-66
2021/03/29 09:56:55;;;;;;;5.40;4.77;;;14.70;99.90;;;;;;4983477;28;23794;-67
2021/03/29 09:59:28;;;;;;;7.00;4.90;;;14.90;99.90;;;;;;4989483;28;20654;-67
2021/03/29 10:01:54;;;;;;;8.87;5.17;;;15.00;99.90;;;;;;4971990;28;23285;-67
2021/03/29 10:04:24;;;;;;;8.60;4.97;;;15.10;99.90;;;;;;4987092;28;20617;-64
2021/03/29 10:06:51;;;;;;;7.60;5.00;;;15.10;99.90;;;;;;4984371;28;20279;-67
2021/03/29 10:09:37;;;;;;;10.30;5.63;;;15.10;99.90;;;;;;4992761;28;20654;-66
2021/03/29 10:12:04;;;;;;;5.63;5.00;;;15.20;99.90;;;;;;4980585;28;20661;-66
2021/03/29 10:14:35;;;;;;;6.97;4.93;;;15.30;99.90;;;;;;4982500;28;20676;-66
2021/03/29 10:17:03;;;;;;;6.17;4.90;;;15.30;99.90;;;;;;4984862;28;20622;-64
2021/03/29 10:19:33;;;;;;;6.43;4.63;;;15.50;99.90;;;;;;4984271;28;20646;-60
2021/03/29 10:22:08;;;;;;;7.90;5.00;;;15.50;99.90;;;;;;4979806;28;20633;-61
2021/03/29 10:24:56;;;;;;;6.00;4.73;;;15.70;99.90;;;;;;4983004;28;21718;-61
2021/03/29 10:27:22;;;;;;;6.60;4.67;;;15.70;99.90;;;;;;4980227;28;20595;-60
2021/03/29 10:29:47;;;;;;;7.53;5.27;;;15.90;99.90;;;;;;4979821;28;20801;-58
2021/03/29 10:32:18;;;;;;;7.87;4.50;;;16.10;99.90;;;;;;4975838;28;20350;-62
2021/03/29 10:34:47;;;;;;;7.63;4.50;;;16.20;99.90;;;;;;4978079;28;22818;-61
2021/03/29 10:37:25;;;;;;;8.43;5.47;;;16.20;99.90;;;;;;4983418;28;20657;-61
2021/03/29 10:39:52;;;;;;;8.57;5.67;;;16.20;99.90;;;;;;4993779;28;20751;-63
2021/03/29 10:42:19;;;;;;;8.03;5.17;;;16.20;99.90;;;;;;4994094;28;21278;-60
2021/03/29 10:44:45;;;;;;;6.50;5.10;;;16.20;99.90;;;;;;4987489;28;20711;-60
2021/03/29 10:47:11;;;;;;;6.07;5.20;;;16.30;99.90;;;;;;4976948;28;20688;-60
2021/03/29 10:49:41;;;;;;;6.67;4.90;;;16.40;99.90;;;;;;5001129;28;21448;-63
2021/03/29 10:52:07;;;;;;;10.60;5.43;;;16.30;99.90;;;;;;4986859;28;20226;-66
2021/03/29 10:54:33;;;;;;;6.53;5.83;;;16.30;99.90;;;;;;4985015;28;21265;-64
2021/03/29 10:56:59;;;;;;;7.40;5.60;;;16.30;99.90;;;;;;4984856;28;20629;-66
2021/03/29 10:59:25;;;;;;;5.33;4.50;;;16.40;99.90;;;;;;4986475;28;20858;-65
2021/03/29 11:01:51;;;;;;;8.43;5.13;;;16.50;99.90;;;;;;4981225;28;20217;-66
2021/03/29 11:04:17;;;;;;;7.40;5.23;;;16.60;99.90;;;;;;4977529;28;20649;-60
2021/03/29 11:06:42;;;;;;;8.37;5.07;;;16.80;99.90;;;;;;4976980;28;21331;-60
2021/03/29 11:09:08;;;;;;;5.50;5.00;;;16.70;99.90;;;;;;4974561;28;20323;-59
2021/03/29 11:11:34;;;;;;;8.90;5.17;;;16.80;99.90;;;;;;4976115;28;20256;-60
2021/03/29 11:13:59;;;;;;;6.17;5.20;;;17.10;99.90;;;;;;4965809;28;20618;-60
2021/03/29 11:16:26;;;;;;;7.93;5.40;;;17.10;99.90;;;;;;4996969;28;21360;-59
2021/03/29 11:18:52;;;;;;;7.20;6.10;;;17.30;99.90;;;;;;4973585;28;20230;-60
2021/03/29 11:21:18;;;;;;;6.93;5.10;;;17.30;99.90;;;;;;4969568;28;20611;-59
2021/03/29 11:23:44;;;;;;;8.17;5.70;;;17.40;99.90;;;;;;4974819;28;20215;-59
2021/03/29 11:26:10;;;;;;;6.00;4.93;;;17.40;99.90;;;;;;4987193;28;22819;-60
2021/03/29 11:28:35;;;;;;;10.70;6.10;;;17.40;99.90;;;;;;4979461;28;20642;-60
2021/03/29 11:31:01;;;;;;;7.30;5.17;;;17.50;99.90;;;;;;4988069;28;20192;-61
2021/03/29 11:33:27;;;;;;;6.07;5.50;;;17.60;99.90;;;;;;4999531;28;20408;-61
2021/03/29 11:35:53;;;;;;;11.33;6.43;;;17.70;99.90;;;;;;4992789;28;20623;-62
2021/03/29 11:38:18;;;;;;;6.67;5.20;;;17.90;99.90;;;;;;4984154;28;20246;-61
2021/03/29 11:40:46;;;;;;;7.77;5.60;;;18.00;99.90;;;;;;4982932;28;20838;-61
2021/03/29 11:43:12;;;;;;;6.90;5.37;;;18.00;99.90;;;;;;4986584;28;20369;-61
2021/03/29 11:45:37;;;;;;;9.57;5.80;;;18.20;99.90;;;;;;4982490;28;21252;-61
2021/03/29 11:48:03;;;;;;;7.57;6.10;;;18.40;99.90;;;;;;4978280;28;21962;-61
2021/03/29 11:50:29;;;;;;;5.77;5.23;;;18.50;99.90;;;;;;4975569;28;20257;-60
2021/03/29 11:52:54;;;;;;;7.00;5.30;;;18.60;99.90;;;;;;4984439;28;20224;-62
2021/03/29 11:55:20;;;;;;;6.73;5.93;;;18.70;99.90;;;;;;4983247;28;20577;-61
2021/03/29 11:57:46;;;;;;;6.10;5.50;;;18.70;99.90;;;;;;4982857;28;21974;-60
2021/03/29 12:00:30;;;;;;;7.40;5.00;;;18.80;99.90;;;;;;4984619;28;20184;-61
2021/03/29 12:03:31;;;;;;;6.07;5.30;;;18.90;99.90;;;;;;4982751;28;20687;-62
2021/03/29 12:05:54;;;;;;;8.40;5.67;;;19.00;99.90;;;;;;4985490;28;20681;-61
2021/03/29 12:08:31;;;;;;;13.97;6.00;;;19.10;99.90;;;;;;4982191;28;20694;-68
2021/03/29 12:13:43;;;;;;;6.40;5.77;;;19.40;99.90;;;;;;4979631;28;22682;-65
2021/03/29 12:16:09;;;;;;;6.17;5.57;;;19.50;99.90;;;;;;4981893;28;20622;-66
2021/03/29 12:18:43;;;;;;;7.17;6.33;;;19.50;99.90;;;;;;4984029;28;20776;-65
2021/03/29 12:21:17;;;;;;;6.83;6.13;;;19.50;99.90;;;;;;4986582;28;21080;-67
2021/03/29 12:23:45;;;;;;;6.97;6.27;;;19.50;99.90;;;;;;4987008;28;20746;-66
2021/03/29 12:26:11;;;;;;;6.30;5.53;;;19.60;99.90;;;;;;4977859;28;20617;-67
2021/03/29 12:28:44;;;;;;;7.50;6.30;;;19.70;99.90;;;;;;4984270;28;20654;-67
2021/03/29 12:31:11;;;;;;;7.40;6.47;;;19.80;99.90;;;;;;5001512;28;20615;-63
2021/03/29 12:33:37;;;;;;;5.90;5.30;;;19.90;99.90;;;;;;4995505;28;20619;-63
2021/03/29 12:36:03;;;;;;;6.63;5.70;;;20.10;99.90;;;;;;4993295;28;20713;-63
2021/03/29 12:38:30;;;;;;;6.10;5.50;;;20.40;99.90;;;;;;4992411;28;21741;-62
2021/03/29 12:40:59;;;;;;;6.00;5.40;;;20.50;99.90;;;;;;4996009;28;21164;-63
2021/03/29 12:43:38;;;;;;;9.90;5.50;;;20.70;99.90;;;;;;4995661;28;20641;-65
2021/03/29 12:46:05;;;;;;;5.40;4.80;;;20.80;99.90;;;;;;4992675;28;20583;-63
2021/03/29 12:48:33;;;;;;;6.10;5.50;;;20.60;99.90;;;;;;4995505;28;20790;-64
2021/03/29 12:51:00;;;;;;;6.63;5.43;;;20.80;99.90;;;;;;4982540;28;20769;-66
2021/03/29 12:53:28;;;;;;;8.23;5.87;;;20.90;99.90;;;;;;4989540;28;20705;-65
2021/03/29 12:55:54;;;;;;;7.20;6.47;;;21.10;99.90;;;;;;4996735;28;21352;-64
2021/03/29 12:58:20;;;;;;;6.63;5.27;;;21.10;99.90;;;;;;4995851;28;20677;-65
2021/03/29 13:00:49;;;;;;;6.13;5.53;;;21.30;99.90;;;;;;4998947;28;22055;-64
2021/03/29 13:03:16;;;;;;;8.70;5.83;;;21.40;99.90;;;;;;4989024;28;20318;-64
2021/03/29 13:05:51;;;;;;;6.80;5.10;;;21.50;99.90;;;;;;4996296;28;20622;-62
2021/03/29 13:08:23;;;;;;;7.47;5.23;;;21.70;99.90;;;;;;4995979;28;20828;-62
2021/03/29 13:13:35;;;;;;;6.00;5.47;;;22.30;99.90;;;;;;4990714;28;21583;-65
2021/03/29 13:16:01;;;;;;;6.10;5.30;;;22.30;99.90;;;;;;4992520;28;20654;-63
2021/03/29 13:18:27;;;;;;;11.10;5.63;;;22.40;99.90;;;;;;5002800;28;22864;-62
2021/03/29 13:20:55;;;;;;;6.00;5.30;;;22.50;99.90;;;;;;5003620;28;20994;-59